Time;durP1;ratioP1;P1;durP2;ratioP2;P2;SDS_P1;SDS_P2;PMS_P1;PMS_P2;Temp;Humidity;BMP_temperature;BMP_pressure;BME280_temperature;BME280_humidity;BME280_pressure;Samples;Min_cycle;Max_cycle;Signal;HPM_P1;HPM_P2
2023/05/11 00:00:07;;;;;;;16.02;13.20;;;13.30;99.90;;;;;;5075713;28;20400;-70
2023/05/11 00:02:33;;;;;;;15.77;13.82;;;13.30;99.90;;;;;;5076157;28;20039;-71
2023/05/11 00:04:58;;;;;;;16.30;13.18;;;13.40;99.90;;;;;;5075895;28;20039;-71
2023/05/11 00:07:24;;;;;;;15.45;13.85;;;13.30;99.90;;;;;;5075883;28;20036;-71
2023/05/11 00:09:50;;;;;;;15.98;13.63;;;13.30;99.90;;;;;;5076020;28;20048;-70
2023/05/11 00:12:15;;;;;;;15.90;14.23;;;13.30;99.90;;;;;;5075990;28;20068;-71
2023/05/11 00:14:41;;;;;;;16.52;14.13;;;13.30;99.90;;;;;;5059082;28;20040;-71
2023/05/11 00:17:06;;;;;;;17.50;13.75;;;13.30;99.90;;;;;;5075714;28;20051;-70
2023/05/11 00:19:32;;;;;;;17.13;14.20;;;13.30;99.90;;;;;;5075785;28;20044;-70
2023/05/11 00:21:58;;;;;;;14.75;13.23;;;13.30;99.90;;;;;;5075533;28;20071;-71
2023/05/11 00:24:27;;;;;;;15.95;14.25;;;13.30;99.90;;;;;;5075877;28;20102;-71
2023/05/11 00:26:52;;;;;;;14.90;13.10;;;13.30;99.90;;;;;;5075528;28;20032;-71
2023/05/11 00:29:18;;;;;;;15.13;13.43;;;13.20;99.90;;;;;;5075329;28;20116;-70
2023/05/11 00:31:47;;;;;;;14.80;12.25;;;13.20;99.90;;;;;;5075466;28;20048;-70
2023/05/11 00:34:16;;;;;;;15.48;13.82;;;13.20;99.90;;;;;;5075746;28;20040;-70
2023/05/11 00:36:42;;;;;;;15.18;13.38;;;13.20;99.90;;;;;;5075613;28;20378;-71
2023/05/11 00:39:10;;;;;;;16.58;14.65;;;13.10;99.90;;;;;;5075278;28;20039;-70
2023/05/11 00:41:36;;;;;;;15.35;13.75;;;13.20;99.90;;;;;;5075263;28;20085;-70
2023/05/11 00:44:02;;;;;;;14.88;13.25;;;13.10;99.90;;;;;;5075371;28;20118;-70
2023/05/11 00:46:27;;;;;;;14.70;13.23;;;13.10;99.90;;;;;;5075306;28;20033;-71
2023/05/11 00:48:53;;;;;;;17.45;14.75;;;13.10;99.90;;;;;;5075119;28;20039;-70
2023/05/11 00:51:20;;;;;;;17.00;14.77;;;13.10;99.90;;;;;;5058566;28;20047;-70
2023/05/11 00:53:46;;;;;;;17.58;14.80;;;13.10;99.90;;;;;;5075228;28;20080;-71
2023/05/11 00:56:12;;;;;;;17.13;15.23;;;13.10;99.90;;;;;;5058683;28;20500;-71
2023/05/11 00:58:38;;;;;;;16.92;14.50;;;13.10;99.90;;;;;;5075383;28;20044;-71
2023/05/11 01:01:04;;;;;;;17.35;14.27;;;13.10;99.90;;;;;;5075084;28;20040;-70
2023/05/11 01:03:30;;;;;;;16.73;14.73;;;13.10;99.90;;;;;;5058405;28;20036;-71
2023/05/11 01:06:34;;;;;;;17.05;14.80;;;13.10;99.90;;;;;;5075142;28;20119;-71
2023/05/11 01:09:14;;;;;;;21.30;15.45;;;13.10;99.90;;;;;;5059173;28;20036;-70
2023/05/11 01:11:50;;;;;;;17.00;15.15;;;13.10;99.90;;;;;;5093302;28;20036;-70
2023/05/11 01:14:26;;;;;;;16.50;14.27;;;13.00;99.90;;;;;;5058673;28;20040;-70
2023/05/11 01:17:02;;;;;;;16.65;14.73;;;13.10;99.90;;;;;;5075288;28;20404;-70
2023/05/11 01:19:47;;;;;;;18.00;15.27;;;13.00;99.90;;;;;;5074807;28;20397;-70
2023/05/11 01:23:00;;;;;;;17.65;13.70;;;13.00;99.90;;;;;;5075017;28;20032;-70
2023/05/11 01:25:34;;;;;;;17.02;13.98;;;13.00;99.90;;;;;;5046056;28;20454;-71
2023/05/11 01:28:31;;;;;;;17.23;14.20;;;12.90;99.90;;;;;;5074839;28;20045;-70
2023/05/11 01:31:05;;;;;;;13.93;12.50;;;12.90;99.90;;;;;;5074873;28;20080;-70
2023/05/11 01:33:34;;;;;;;17.02;14.18;;;12.90;99.90;;;;;;5075111;28;20044;-70
2023/05/11 01:36:04;;;;;;;15.48;13.88;;;12.90;99.90;;;;;;5074788;28;20048;-70
2023/05/11 01:38:36;;;;;;;20.77;14.68;;;12.90;99.90;;;;;;5074721;28;20051;-70
2023/05/11 01:41:08;;;;;;;16.17;14.00;;;12.90;99.90;;;;;;5074708;28;20044;-70
2023/05/11 01:43:36;;;;;;;17.17;14.27;;;12.90;99.90;;;;;;5078030;28;20289;-71
2023/05/11 01:46:03;;;;;;;17.30;14.48;;;12.90;99.90;;;;;;5078528;28;20602;-70
2023/05/11 01:48:34;;;;;;;17.48;14.35;;;12.90;99.90;;;;;;5078737;28;20079;-70
2023/05/11 01:51:02;;;;;;;15.65;13.57;;;12.90;99.90;;;;;;5096662;28;20614;-70
2023/05/11 01:53:30;;;;;;;20.67;15.02;;;12.90;99.90;;;;;;5078972;28;20040;-70
2023/05/11 01:55:58;;;;;;;18.95;15.43;;;12.90;99.90;;;;;;5062195;28;20143;-70
2023/05/11 01:58:25;;;;;;;19.83;14.57;;;12.80;99.90;;;;;;5078291;28;20036;-70
2023/05/11 02:00:53;;;;;;;18.00;15.00;;;12.80;99.90;;;;;;5078079;28;20093;-70
2023/05/11 02:03:20;;;;;;;18.48;15.07;;;12.80;99.90;;;;;;5078527;28;20062;-71
2023/05/11 02:05:47;;;;;;;20.27;15.18;;;12.80;99.90;;;;;;5078447;28;20036;-70
2023/05/11 02:08:13;;;;;;;20.38;15.43;;;12.90;99.90;;;;;;5078061;28;20123;-70
2023/05/11 02:10:41;;;;;;;16.63;14.85;;;12.80;99.90;;;;;;5078373;28;20093;-70
2023/05/11 02:13:08;;;;;;;17.42;13.57;;;12.80;99.90;;;;;;5061437;28;20047;-70
2023/05/11 02:15:37;;;;;;;19.88;16.13;;;12.70;99.90;;;;;;5078019;28;20486;-71
2023/05/11 02:18:05;;;;;;;20.75;16.75;;;12.70;99.90;;;;;;5077894;28;20051;-70
2023/05/11 02:20:32;;;;;;;20.15;16.08;;;12.80;99.90;;;;;;5077773;28;20097;-71
2023/05/11 02:22:59;;;;;;;20.25;15.93;;;12.70;99.90;;;;;;5077875;28;20039;-71
2023/05/11 02:25:25;;;;;;;20.88;15.07;;;12.80;99.90;;;;;;5077971;28;20048;-71
2023/05/11 02:27:51;;;;;;;17.98;14.82;;;12.60;99.90;;;;;;5077692;28;20416;-71
2023/05/11 02:30:17;;;;;;;17.52;14.95;;;12.70;99.90;;;;;;5077667;28;20046;-70
2023/05/11 02:32:55;;;;;;;18.95;14.27;;;12.70;99.90;;;;;;5061307;28;20067;-71
2023/05/11 02:35:24;;;;;;;15.70;13.95;;;12.70;99.90;;;;;;5077964;28;20039;-71
2023/05/11 02:37:54;;;;;;;18.77;14.30;;;12.70;99.90;;;;;;5077571;28;20055;-70
2023/05/11 02:40:27;;;;;;;16.10;13.88;;;12.70;99.90;;;;;;5078479;28;20094;-70
2023/05/11 02:42:59;;;;;;;17.10;14.40;;;12.60;99.90;;;;;;5060889;28;20488;-70
2023/05/11 02:45:29;;;;;;;18.70;15.53;;;12.60;99.90;;;;;;5077867;28;20394;-70
2023/05/11 02:47:57;;;;;;;17.65;14.15;;;12.60;99.90;;;;;;5077697;28;20134;-71
2023/05/11 02:50:26;;;;;;;16.13;14.43;;;12.60;99.90;;;;;;5077477;28;20039;-71
2023/05/11 02:52:55;;;;;;;17.70;14.63;;;12.60;99.90;;;;;;5076954;28;20450;-70
2023/05/11 02:55:22;;;;;;;20.35;15.95;;;12.60;99.90;;;;;;5060637;28;20044;-71
2023/05/11 02:57:48;;;;;;;20.60;16.83;;;12.60;99.90;;;;;;5077508;28;20151;-71
2023/05/11 03:00:14;;;;;;;23.33;17.42;;;12.50;99.90;;;;;;5076891;28;20473;-70
2023/05/11 03:02:39;;;;;;;21.80;16.38;;;12.60;99.90;;;;;;5060358;28;20078;-70
2023/05/11 03:05:05;;;;;;;22.17;17.23;;;12.60;99.90;;;;;;5077209;28;20040;-70
2023/05/11 03:07:34;;;;;;;21.80;16.38;;;12.60;99.90;;;;;;5095473;28;20066;-70
2023/05/11 03:10:01;;;;;;;21.02;16.85;;;12.70;99.90;;;;;;5077180;28;20508;-70
2023/05/11 03:12:30;;;;;;;21.60;16.08;;;12.60;99.90;;;;;;5077011;28;20080;-70
2023/05/11 03:14:59;;;;;;;21.77;16.65;;;12.60;99.90;;;;;;5076959;28;20082;-71
2023/05/11 03:17:26;;;;;;;21.35;17.55;;;12.60;99.90;;;;;;5076853;28;20044;-70
2023/05/11 03:19:53;;;;;;;21.35;17.13;;;12.60;99.90;;;;;;5076967;28;20075;-70
2023/05/11 03:22:20;;;;;;;23.92;18.30;;;12.60;99.90;;;;;;5076694;28;20067;-70
2023/05/11 03:24:46;;;;;;;23.35;17.88;;;12.50;99.90;;;;;;5060016;28;20092;-71
2023/05/11 03:27:12;;;;;;;27.60;18.85;;;12.60;99.90;;;;;;5076877;28;20094;-71
2023/05/11 03:29:41;;;;;;;22.90;17.65;;;12.50;99.90;;;;;;5076551;28;20405;-70
2023/05/11 03:32:07;;;;;;;26.67;19.42;;;12.60;99.90;;;;;;5076826;28;20059;-71
2023/05/11 03:34:32;;;;;;;31.10;21.45;;;12.60;99.90;;;;;;5076496;28;20404;-71
2023/05/11 03:36:59;;;;;;;25.88;19.48;;;12.50;99.90;;;;;;5059896;28;20036;-71
2023/05/11 03:39:28;;;;;;;26.73;19.02;;;12.50;99.90;;;;;;5076534;28;20101;-70
2023/05/11 03:41:55;;;;;;;26.45;18.92;;;12.60;99.90;;;;;;5076337;28;20036;-70
2023/05/11 03:44:21;;;;;;;23.77;18.25;;;12.40;99.90;;;;;;5076250;28;20121;-70
2023/05/11 03:46:49;;;;;;;21.15;17.23;;;12.50;99.90;;;;;;5076236;28;20101;-70
2023/05/11 03:49:16;;;;;;;18.83;15.23;;;12.50;99.90;;;;;;5076212;28;20043;-71
2023/05/11 03:51:43;;;;;;;20.23;15.63;;;12.50;99.90;;;;;;5059540;28;20032;-70
2023/05/11 03:54:09;;;;;;;20.33;16.45;;;12.40;99.90;;;;;;5094307;28;20575;-71
2023/05/11 03:56:39;;;;;;;19.38;16.48;;;12.40;99.90;;;;;;5059388;28;20046;-70
2023/05/11 03:59:06;;;;;;;19.50;15.75;;;12.40;99.90;;;;;;5075835;28;20075;-70
2023/05/11 04:01:32;;;;;;;16.05;14.20;;;12.40;99.90;;;;;;5075906;28;20086;-71
2023/05/11 04:03:58;;;;;;;21.17;16.60;;;12.30;99.90;;;;;;5077265;28;20085;-71
2023/05/11 04:06:23;;;;;;;23.83;17.23;;;12.40;99.90;;;;;;5075550;28;20396;-71
2023/05/11 04:08:49;;;;;;;23.30;16.90;;;12.40;99.90;;;;;;5075824;28;20458;-70
2023/05/11 04:11:15;;;;;;;21.88;16.88;;;12.30;99.90;;;;;;5075822;28;20040;-71
2023/05/11 04:13:41;;;;;;;20.30;16.45;;;12.40;99.90;;;;;;5075843;28;20047;-71
2023/05/11 04:16:07;;;;;;;22.27;17.50;;;12.30;99.90;;;;;;5059013;28;20043;-70
2023/05/11 04:18:33;;;;;;;20.73;16.92;;;12.30;99.90;;;;;;5075640;28;20532;-70
2023/05/11 04:20:58;;;;;;;28.38;19.13;;;12.30;99.90;;;;;;5075633;28;20071;-70
2023/05/11 04:23:24;;;;;;;24.42;17.08;;;12.30;99.90;;;;;;5075849;28;20032;-71
2023/05/11 04:25:53;;;;;;;27.40;20.13;;;12.20;99.90;;;;;;5075615;28;20528;-71
2023/05/11 04:28:20;;;;;;;25.38;19.52;;;12.30;99.90;;;;;;5075792;28;20047;-70
2023/05/11 04:30:52;;;;;;;26.45;19.77;;;12.30;99.90;;;;;;5058835;28;20036;-70
2023/05/11 04:33:18;;;;;;;29.00;20.35;;;12.40;99.90;;;;;;5058880;28;20039;-70
2023/05/11 04:35:43;;;;;;;28.20;19.63;;;12.40;99.90;;;;;;5075716;28;20052;-71
2023/05/11 04:38:09;;;;;;;32.78;20.90;;;12.30;99.90;;;;;;5075392;28;20518;-71
2023/05/11 04:40:35;;;;;;;33.80;21.55;;;12.30;99.90;;;;;;5075307;28;20043;-70
2023/05/11 04:43:00;;;;;;;38.22;23.05;;;12.30;99.90;;;;;;5076493;28;20032;-70
2023/05/11 04:45:26;;;;;;;39.63;23.52;;;12.40;99.90;;;;;;5075348;28;20485;-71
2023/05/11 04:47:51;;;;;;;35.90;23.35;;;12.30;99.90;;;;;;5075220;28;20123;-70
2023/05/11 04:50:17;;;;;;;35.22;23.85;;;12.30;99.90;;;;;;5075289;28;20048;-71
2023/05/11 04:52:43;;;;;;;40.85;25.42;;;12.30;99.90;;;;;;5075189;28;20050;-70
2023/05/11 04:55:08;;;;;;;41.45;25.48;;;12.30;99.90;;;;;;5075221;28;20042;-70
2023/05/11 04:57:34;;;;;;;38.90;24.73;;;12.40;99.90;;;;;;5075446;28;20048;-70
2023/05/11 05:00:00;;;;;;;44.38;26.10;;;12.40;99.90;;;;;;5074877;28;20086;-71
2023/05/11 05:02:25;;;;;;;47.13;26.98;;;12.40;99.90;;;;;;5075443;28;20032;-70
2023/05/11 05:04:51;;;;;;;40.15;25.20;;;12.40;99.90;;;;;;5075090;28;20485;-71
2023/05/11 05:07:16;;;;;;;42.72;26.33;;;12.40;99.90;;;;;;5074994;28;20051;-70
2023/05/11 05:09:42;;;;;;;43.80;27.10;;;12.40;99.90;;;;;;5075204;28;20036;-70
2023/05/11 05:12:08;;;;;;;45.55;28.08;;;12.40;99.90;;;;;;5075292;28;20036;-70
2023/05/11 05:14:33;;;;;;;49.13;28.42;;;12.40;99.90;;;;;;5074976;28;20400;-70
2023/05/11 05:17:00;;;;;;;46.15;27.38;;;12.50;99.90;;;;;;5077580;28;20040;-70
2023/05/11 05:19:25;;;;;;;60.55;30.27;;;12.50;99.90;;;;;;5079004;28;20031;-70
2023/05/11 05:21:51;;;;;;;48.58;27.00;;;12.50;99.90;;;;;;5062435;28;20036;-70
2023/05/11 05:24:17;;;;;;;41.35;24.23;;;12.50;99.90;;;;;;5079181;28;20031;-70
2023/05/11 05:26:42;;;;;;;44.13;25.42;;;12.60;99.90;;;;;;5078963;28;20480;-70
2023/05/11 05:29:08;;;;;;;39.80;23.20;;;12.50;99.90;;;;;;5079109;28;20034;-70
2023/05/11 05:31:34;;;;;;;48.15;22.77;;;12.50;99.90;;;;;;5078882;28;20040;-70
2023/05/11 05:33:59;;;;;;;48.28;24.35;;;12.60;99.90;;;;;;5078881;28;20052;-70
2023/05/11 05:36:25;;;;;;;37.13;22.30;;;12.50;99.90;;;;;;5078829;28;20032;-70
2023/05/11 05:38:50;;;;;;;31.50;20.45;;;12.60;99.90;;;;;;5078643;28;20051;-70
2023/05/11 05:41:16;;;;;;;31.73;20.35;;;12.50;99.90;;;;;;5078604;28;20078;-70
2023/05/11 05:43:41;;;;;;;28.33;18.02;;;12.60;99.90;;;;;;5078916;28;20036;-71
2023/05/11 05:46:07;;;;;;;28.60;18.80;;;12.70;99.90;;;;;;5078613;28;20497;-71
2023/05/11 05:48:33;;;;;;;26.48;17.98;;;12.70;99.90;;;;;;5078494;28;20113;-71
2023/05/11 05:50:59;;;;;;;26.35;18.33;;;12.80;99.90;;;;;;5078542;28;20036;-70
2023/05/11 05:53:24;;;;;;;25.45;17.92;;;12.70;99.90;;;;;;5078515;28;20043;-71
2023/05/11 05:55:50;;;;;;;28.35;18.50;;;12.80;99.90;;;;;;5062004;28;20043;-71
2023/05/11 05:58:15;;;;;;;21.65;16.73;;;12.90;99.90;;;;;;5061710;28;20489;-70
2023/05/11 06:00:41;;;;;;;24.63;16.88;;;12.90;99.90;;;;;;5078109;28;20118;-70
2023/05/11 06:03:07;;;;;;;30.50;18.90;;;12.90;99.90;;;;;;5078345;28;20042;-70
2023/05/11 06:05:32;;;;;;;27.23;18.73;;;12.90;99.90;;;;;;5078274;28;20101;-70
2023/05/11 06:07:58;;;;;;;28.52;19.65;;;12.90;99.90;;;;;;5061490;28;20032;-70
2023/05/11 06:10:23;;;;;;;30.95;19.35;;;12.90;99.90;;;;;;5078172;28;20081;-70
2023/05/11 06:12:49;;;;;;;30.83;20.83;;;12.90;99.90;;;;;;5078117;28;20097;-70
2023/05/11 06:15:15;;;;;;;30.20;19.98;;;12.90;99.90;;;;;;5096214;28;20115;-70
2023/05/11 06:17:40;;;;;;;30.05;19.42;;;13.00;99.90;;;;;;5078062;28;20032;-70
2023/05/11 06:20:07;;;;;;;30.08;20.35;;;13.10;99.90;;;;;;5078177;28;20047;-70
2023/05/11 06:22:34;;;;;;;30.70;20.52;;;13.10;99.90;;;;;;5078031;28;20063;-70
2023/05/11 06:24:59;;;;;;;27.95;20.08;;;13.20;99.90;;;;;;5078788;28;20063;-70
2023/05/11 06:27:25;;;;;;;26.00;19.33;;;13.30;99.90;;;;;;5077708;28;20054;-70
2023/05/11 06:29:51;;;;;;;27.95;20.00;;;13.30;99.90;;;;;;5077789;28;20181;-70
2023/05/11 06:32:16;;;;;;;29.00;20.08;;;13.30;99.90;;;;;;5077825;28;20044;-70
2023/05/11 06:34:42;;;;;;;25.92;19.13;;;13.30;99.90;;;;;;5077719;28;20043;-70
2023/05/11 06:37:07;;;;;;;25.80;18.73;;;13.30;99.90;;;;;;5077627;28;20044;-70
2023/05/11 06:39:36;;;;;;;28.48;19.88;;;13.30;99.90;;;;;;5060906;28;20043;-70
2023/05/11 06:42:03;;;;;;;26.25;18.30;;;13.40;99.90;;;;;;5077610;28;20039;-71
2023/05/11 06:44:29;;;;;;;25.00;18.65;;;13.50;99.90;;;;;;5077411;28;20513;-71
2023/05/11 06:46:54;;;;;;;25.70;18.17;;;13.50;99.90;;;;;;5061020;28;20044;-71
2023/05/11 06:49:20;;;;;;;25.02;19.08;;;13.40;99.90;;;;;;5077395;28;20427;-70
2023/05/11 06:51:46;;;;;;;22.63;16.15;;;13.40;99.90;;;;;;5060665;28;20044;-70
2023/05/11 06:54:11;;;;;;;23.83;17.20;;;13.40;99.90;;;;;;5077391;28;20040;-70
2023/05/11 06:56:37;;;;;;;21.83;16.60;;;13.50;99.90;;;;;;5077562;28;20097;-71
2023/05/11 06:59:02;;;;;;;20.90;15.73;;;13.30;99.90;;;;;;5077125;28;20079;-71
2023/05/11 07:01:28;;;;;;;20.80;15.52;;;13.40;99.90;;;;;;5077081;28;20052;-71
2023/05/11 07:03:54;;;;;;;22.25;15.45;;;13.40;99.90;;;;;;5077496;28;20119;-71
2023/05/11 07:06:20;;;;;;;20.30;15.00;;;13.30;99.90;;;;;;5077373;28;20492;-71
2023/05/11 07:08:46;;;;;;;20.70;16.05;;;13.40;99.90;;;;;;5076965;28;20089;-70
2023/05/11 07:11:12;;;;;;;20.33;15.35;;;13.40;99.90;;;;;;5076952;28;20097;-70
2023/05/11 07:13:37;;;;;;;21.83;15.15;;;13.40;99.90;;;;;;5076975;28;20074;-71
2023/05/11 07:16:03;;;;;;;22.20;15.18;;;13.40;99.90;;;;;;5077067;28;20083;-71
2023/05/11 07:18:29;;;;;;;21.30;15.27;;;13.40;99.90;;;;;;5076921;28;20044;-71
2023/05/11 07:20:54;;;;;;;21.90;15.65;;;13.40;99.90;;;;;;5060158;28;20040;-70
2023/05/11 07:23:20;;;;;;;20.58;15.02;;;13.30;99.90;;;;;;5076808;28;20040;-70
2023/05/11 07:25:45;;;;;;;21.35;15.35;;;13.30;99.90;;;;;;5076765;28;20040;-70
2023/05/11 07:28:11;;;;;;;19.80;14.63;;;13.30;99.90;;;;;;5076636;28;20032;-70
2023/05/11 07:30:37;;;;;;;22.25;15.82;;;13.30;99.90;;;;;;5076694;28;20038;-70
2023/05/11 07:33:02;;;;;;;20.23;14.88;;;13.30;99.90;;;;;;5076842;28;20048;-70
2023/05/11 07:35:28;;;;;;;18.65;13.88;;;13.30;99.90;;;;;;5059855;28;20399;-70
2023/05/11 07:37:54;;;;;;;18.50;13.88;;;13.30;99.90;;;;;;5076355;28;20044;-70
2023/05/11 07:40:19;;;;;;;19.45;14.18;;;13.30;99.90;;;;;;5075499;28;20117;-71
2023/05/11 07:42:45;;;;;;;22.23;13.95;;;13.30;99.90;;;;;;5059785;28;20072;-71
2023/05/11 07:45:11;;;;;;;21.75;14.02;;;13.30;99.90;;;;;;5076348;28;20067;-70
2023/05/11 07:47:38;;;;;;;23.15;15.63;;;13.30;99.90;;;;;;5076346;28;20031;-71
2023/05/11 07:50:05;;;;;;;31.25;14.40;;;13.20;99.90;;;;;;5060411;28;20089;-70
2023/05/11 07:52:30;;;;;;;19.00;12.73;;;13.20;99.90;;;;;;5059803;28;20056;-71
2023/05/11 07:54:56;;;;;;;22.02;13.20;;;13.30;99.90;;;;;;5059565;28;20047;-71
2023/05/11 07:57:21;;;;;;;20.70;14.75;;;13.20;99.90;;;;;;5076668;28;20132;-71
2023/05/11 07:59:47;;;;;;;22.65;14.48;;;13.30;99.90;;;;;;5075827;28;20093;-71
2023/05/11 08:02:13;;;;;;;19.83;13.45;;;13.20;99.90;;;;;;5076331;28;20036;-71
2023/05/11 08:04:39;;;;;;;21.73;13.77;;;13.30;99.90;;;;;;5094114;28;20396;-71
2023/05/11 08:07:05;;;;;;;22.00;13.13;;;13.20;99.90;;;;;;5075947;28;20051;-72
2023/05/11 08:09:31;;;;;;;19.52;12.02;;;13.20;99.90;;;;;;5075881;28;20039;-72
2023/05/11 08:11:56;;;;;;;15.93;11.52;;;13.30;99.90;;;;;;5059182;28;20040;-71
2023/05/11 08:14:23;;;;;;;14.82;10.60;;;13.30;99.90;;;;;;5075765;28;20043;-72
2023/05/11 08:16:49;;;;;;;11.18;8.38;;;13.30;99.90;;;;;;5075749;28;20068;-71
2023/05/11 08:19:14;;;;;;;11.02;8.20;;;13.30;99.90;;;;;;5075700;28;20044;-71
2023/05/11 08:21:40;;;;;;;10.15;6.88;;;13.20;99.90;;;;;;5075571;28;20040;-71
2023/05/11 08:24:06;;;;;;;9.50;6.95;;;13.20;99.90;;;;;;5075592;28;20032;-71
2023/05/11 08:26:32;;;;;;;11.15;7.53;;;13.20;99.90;;;;;;5075513;28;20032;-71
2023/05/11 08:28:57;;;;;;;11.50;7.10;;;13.20;99.90;;;;;;5075465;28;20089;-71
2023/05/11 08:31:23;;;;;;;12.35;7.80;;;13.40;99.90;;;;;;5075797;28;20140;-71
2023/05/11 08:33:49;;;;;;;10.57;7.05;;;13.40;99.90;;;;;;5075833;28;20047;-71
2023/05/11 08:36:14;;;;;;;11.48;7.40;;;13.40;99.90;;;;;;5058853;28;20488;-71
2023/05/11 08:38:40;;;;;;;8.10;6.38;;;13.40;99.90;;;;;;5075295;28;20036;-70
2023/05/11 08:41:06;;;;;;;9.43;6.72;;;13.40;99.90;;;;;;5075336;28;20173;-70
2023/05/11 08:43:34;;;;;;;10.73;6.93;;;13.50;99.90;;;;;;5075394;28;20032;-70
2023/05/11 08:46:03;;;;;;;9.57;7.57;;;13.60;99.90;;;;;;5059381;28;20080;-70
2023/05/11 08:48:30;;;;;;;8.50;6.38;;;13.50;99.90;;;;;;5075548;28;20040;-71
2023/05/11 08:50:56;;;;;;;8.25;6.15;;;13.50;99.90;;;;;;5074889;28;20403;-70
2023/05/11 08:53:22;;;;;;;8.70;6.28;;;13.50;99.90;;;;;;5075276;28;20040;-74
2023/05/11 08:55:50;;;;;;;7.18;5.28;;;13.50;99.90;;;;;;5058762;28;20036;-71
2023/05/11 08:58:20;;;;;;;8.05;5.63;;;13.70;99.90;;;;;;5075357;28;20070;-70
2023/05/11 09:00:47;;;;;;;9.85;6.10;;;13.60;99.90;;;;;;5074981;28;20097;-70
2023/05/11 09:03:21;;;;;;;6.10;4.90;;;13.80;99.90;;;;;;5058634;28;20127;-71
2023/05/11 09:05:48;;;;;;;7.32;5.05;;;13.80;99.90;;;;;;5075115;28;20085;-71
2023/05/11 09:08:16;;;;;;;4.70;3.40;;;13.80;99.90;;;;;;5075015;28;20043;-70
2023/05/11 09:10:43;;;;;;;3.92;3.08;;;13.80;99.90;;;;;;5075320;28;20051;-71
2023/05/11 09:13:08;;;;;;;4.72;3.03;;;14.00;99.90;;;;;;5075065;28;20046;-71
2023/05/11 09:15:34;;;;;;;5.53;2.90;;;14.00;99.90;;;;;;5058270;28;20115;-71
2023/05/11 09:18:01;;;;;;;3.50;2.75;;;14.00;99.90;;;;;;5074935;28;20052;-70
2023/05/11 09:20:29;;;;;;;4.20;3.00;;;14.00;99.90;;;;;;5075080;28;20098;-70
2023/05/11 09:22:55;;;;;;;5.05;3.22;;;14.10;99.90;;;;;;5074967;28;20119;-70
2023/05/11 09:25:22;;;;;;;3.95;2.58;;;14.10;99.90;;;;;;5074943;28;20036;-70
2023/05/11 09:27:48;;;;;;;5.20;2.72;;;14.10;99.90;;;;;;5074891;28;20043;-70
2023/05/11 09:30:16;;;;;;;6.07;2.60;;;14.10;99.90;;;;;;5074803;28;20123;-70
2023/05/11 09:32:56;;;;;;;3.75;1.98;;;14.20;99.90;;;;;;5074797;28;20497;-70
2023/05/11 09:35:30;;;;;;;2.60;2.13;;;14.30;99.90;;;;;;5074801;28;20051;-70
2023/05/11 09:38:23;;;;;;;4.35;2.63;;;14.20;99.90;;;;;;5075040;28;20042;-70
2023/05/11 09:40:51;;;;;;;6.32;4.00;;;14.30;99.90;;;;;;5071339;28;20052;-72
2023/05/11 09:43:25;;;;;;;6.10;4.50;;;14.20;99.90;;;;;;5074722;28;20043;-72
2023/05/11 09:45:56;;;;;;;8.93;5.47;;;14.30;99.90;;;;;;5074989;28;20032;-72
2023/05/11 09:48:31;;;;;;;6.47;4.90;;;14.30;99.90;;;;;;5058194;28;20059;-72
2023/05/11 09:51:01;;;;;;;8.43;6.55;;;14.40;99.90;;;;;;5074717;28;20044;-71
2023/05/11 09:53:39;;;;;;;10.85;7.70;;;14.40;99.90;;;;;;5074638;28;20047;-71
2023/05/11 09:56:05;;;;;;;10.80;8.75;;;14.50;99.90;;;;;;5074928;28;20090;-71
2023/05/11 09:59:06;;;;;;;12.02;9.10;;;14.50;99.90;;;;;;5074465;28;20083;-72
2023/05/11 10:01:33;;;;;;;12.57;10.73;;;14.60;99.90;;;;;;4974932;28;20070;-72
2023/05/11 10:04:02;;;;;;;16.65;11.77;;;14.50;99.90;;;;;;4961013;28;20072;-71
2023/05/11 10:06:46;;;;;;;15.75;12.82;;;14.70;99.90;;;;;;4978446;28;20049;-71
2023/05/11 10:09:13;;;;;;;17.23;12.82;;;14.60;99.90;;;;;;4978707;28;20046;-71
2023/05/11 10:11:43;;;;;;;18.13;12.05;;;14.70;99.90;;;;;;4978494;28;20046;-71
2023/05/11 10:14:13;;;;;;;15.55;12.43;;;14.70;99.90;;;;;;4978393;28;20042;-71
2023/05/11 10:16:42;;;;;;;16.08;12.48;;;14.90;99.90;;;;;;4978694;28;20054;-71
2023/05/11 10:19:09;;;;;;;13.07;11.07;;;15.00;99.90;;;;;;4962360;28;20050;-71
2023/05/11 10:21:35;;;;;;;15.10;11.80;;;15.10;99.90;;;;;;4978195;28;20046;-71
2023/05/11 10:24:02;;;;;;;14.45;12.52;;;15.30;99.90;;;;;;4978178;28;20463;-71
2023/05/11 10:26:29;;;;;;;14.43;12.18;;;15.30;99.90;;;;;;4978159;28;20039;-71
2023/05/11 10:28:55;;;;;;;15.70;13.40;;;15.60;99.90;;;;;;4978006;28;20089;-71
2023/05/11 10:31:23;;;;;;;14.80;12.13;;;15.70;99.90;;;;;;4978075;28;20078;-71
2023/05/11 10:33:50;;;;;;;13.35;11.18;;;15.80;99.90;;;;;;4962034;28;20416;-71
2023/05/11 10:36:22;;;;;;;12.50;10.80;;;15.80;99.90;;;;;;5060997;28;20048;-71
2023/05/11 10:38:48;;;;;;;13.25;11.18;;;15.90;99.90;;;;;;5077803;28;20113;-71
2023/05/11 10:41:35;;;;;;;13.05;11.63;;;16.00;99.90;;;;;;5077602;28;20516;-71
2023/05/11 10:44:34;;;;;;;13.95;12.15;;;16.10;99.90;;;;;;5077584;28;20079;-71
2023/05/11 10:47:26;;;;;;;14.13;11.57;;;16.10;99.90;;;;;;5077523;28;20042;-71
2023/05/11 10:50:10;;;;;;;14.77;12.80;;;16.20;99.90;;;;;;5077792;28;20496;-71
2023/05/11 10:52:45;;;;;;;17.38;13.02;;;16.20;99.90;;;;;;5078156;28;20086;-71
2023/05/11 10:55:37;;;;;;;16.63;13.90;;;16.20;99.90;;;;;;5078593;28;20047;-71
2023/05/11 10:58:13;;;;;;;15.27;13.20;;;16.20;99.90;;;;;;5066122;28;20075;-72
2023/05/11 11:01:16;;;;;;;16.02;13.23;;;16.20;99.90;;;;;;5077079;28;20404;-71
2023/05/11 11:03:58;;;;;;;17.65;13.77;;;16.30;99.90;;;;;;5077236;28;20119;-71
2023/05/11 11:06:24;;;;;;;15.25;13.35;;;16.40;99.90;;;;;;5077244;28;20064;-72
2023/05/11 11:09:00;;;;;;;15.88;13.98;;;16.40;99.90;;;;;;5077023;28;20370;-71
2023/05/11 11:11:46;;;;;;;15.65;13.95;;;16.50;99.90;;;;;;5077289;28;20044;-71
2023/05/11 11:14:17;;;;;;;16.67;12.48;;;16.60;99.90;;;;;;5060064;28;20044;-71
2023/05/11 11:17:30;;;;;;;14.98;13.38;;;16.80;99.90;;;;;;5076913;28;20044;-71
2023/05/11 11:19:57;;;;;;;;;;;17.00;99.90;;;;;;5055818;28;20047;-71
2023/05/11 11:22:35;;;;;;;16.20;13.68;;;17.10;99.90;;;;;;5077083;28;19939;-71
2023/05/11 11:25:05;;;;;;;15.68;13.70;;;17.10;99.90;;;;;;5076734;28;20040;-71
2023/05/11 11:27:40;;;;;;;20.35;14.95;;;17.20;99.90;;;;;;5076694;28;20067;-71
2023/05/11 11:30:18;;;;;;;16.42;13.27;;;17.20;99.90;;;;;;5076585;28;20036;-71
2023/05/11 11:32:47;;;;;;;16.90;13.35;;;17.30;99.90;;;;;;5076608;28;20028;-72
2023/05/11 11:35:40;;;;;;;15.00;11.75;;;17.30;99.90;;;;;;5059862;28;20035;-72
2023/05/11 11:38:20;;;;;;;16.17;13.40;;;17.40;99.90;;;;;;5060016;28;20105;-72
2023/05/11 11:40:53;;;;;;;14.85;13.13;;;17.40;99.90;;;;;;5059763;28;20063;-71
2023/05/11 11:43:24;;;;;;;13.95;12.32;;;17.40;99.90;;;;;;5076669;28;20077;-70
2023/05/11 11:45:53;;;;;;;15.57;11.98;;;17.50;99.90;;;;;;5076363;28;20359;-69
2023/05/11 11:48:34;;;;;;;12.98;10.93;;;17.50;99.90;;;;;;5059925;28;20094;-69
2023/05/11 11:51:07;;;;;;;12.15;10.85;;;17.50;99.90;;;;;;5076170;28;20454;-69
2023/05/11 11:53:43;;;;;;;;;;;17.50;99.90;;;;;;5076637;28;20047;-69
2023/05/11 11:56:15;;;;;;;11.45;9.65;;;17.60;99.90;;;;;;5076179;28;20376;-71
2023/05/11 11:58:40;;;;;;;11.77;9.77;;;17.60;99.90;;;;;;5076120;28;20212;-68
2023/05/11 12:01:07;;;;;;;13.75;10.07;;;17.80;99.90;;;;;;5059430;28;20048;-68
2023/05/11 12:03:35;;;;;;;12.93;11.18;;;17.80;99.90;;;;;;5059682;28;20055;-69
2023/05/11 12:06:03;;;;;;;11.45;10.13;;;17.90;99.90;;;;;;5076018;28;20047;-69
2023/05/11 12:08:32;;;;;;;11.48;9.23;;;17.90;99.90;;;;;;5075861;28;20547;-69
2023/05/11 12:10:58;;;;;;;11.63;9.60;;;18.00;99.90;;;;;;5075846;28;20044;-69
2023/05/11 12:13:24;;;;;;;9.68;8.70;;;18.00;99.90;;;;;;5075797;28;20036;-69
2023/05/11 12:16:07;;;;;;;9.68;8.68;;;18.10;99.90;;;;;;5076070;28;20052;-69
2023/05/11 12:18:33;;;;;;;9.27;8.23;;;18.20;99.90;;;;;;5075695;28;20488;-69
2023/05/11 12:20:58;;;;;;;8.45;7.57;;;18.20;99.90;;;;;;5075617;28;20086;-69
2023/05/11 12:23:25;;;;;;;9.38;8.38;;;18.40;99.90;;;;;;5075931;28;20028;-69
2023/05/11 12:26:05;;;;;;;8.60;7.68;;;18.60;99.90;;;;;;5075280;28;20456;-69
2023/05/11 12:28:32;;;;;;;7.43;6.30;;;18.80;99.90;;;;;;5075530;28;20079;-69
2023/05/11 12:30:58;;;;;;;6.75;5.75;;;18.90;99.90;;;;;;5075767;28;20048;-69
2023/05/11 12:33:24;;;;;;;7.00;4.82;;;19.00;99.90;;;;;;5075504;28;20519;-69
2023/05/11 12:35:53;;;;;;;5.43;4.50;;;19.00;99.90;;;;;;5075468;28;20173;-69
2023/05/11 12:38:20;;;;;;;6.60;3.38;;;19.00;99.90;;;;;;5075313;28;20036;-69